Aérodrome :
LOGIN :

S'inscrire | Disclaimer

   EN    FR    IT 

 










Légende :    VFR   VFR Marginal   IFR   IFR Intensif   IFR Très Intensif
Visi : 
Plafond : 
>= 8 km
>= 3000ft
5 à 8 km
1000 à 3000 ft
1500m à 5 km
500 à 1000 ft
800 à 1500m
200 à 500 ft
< 800m
< 200 ft
Symboles :   Orages  Brouillard  Fortes neiges  Fortes précipitations  Vent > 20 kt
SIGMETs :   Divers  Orages  Givrage  Turbulence  Onde Orograph.  Cendres Volcan.







- Altitude de l'aérodrome : 93 ft
- Code IATA : XRY


LEJR - Jerez

DERNIER METAR :
  • 261730Z 27010KT 230V320 9999 FEW040 26/16 Q1015

METARs EXPIRÉS :
  • 261700Z 28011KT 240V330 9999 FEW040 27/16 Q1015
  • 261630Z 27010KT 230V320 9999 FEW040 28/15 Q1015
  • 261600Z 28010KT 240V320 9999 FEW040 29/15 Q1015
  • 261530Z 27010KT 240V300 9999 FEW040 29/16 Q1015
  • 261500Z 25010KT 210V290 9999 FEW040 30/15 Q1015

TAF TAF LEJR
Valide du 26 à 18h jusqu'au 27 à 18h UTC


261700Z 2618/2718 27012KT 9999 FEW040 TX30/2714Z TN18/2706Z
BECMG 2620/2622 VRB02KT
PROB40
TEMPO 2623/2708 3000 BR BKN010
BECMG 2709/2711 26010KT
Pas de NOTAMs connus pour ce terrain.



MET'MAP, la Météo Aéronautique d'un coup d'oeil ! - Copyright ORBIFLY Décembre 2007 - Disclaimer

ORBIFLY MET'MAP TEAM :

Programmation & Développement : Alexandra Zaïnal
Conception & Développement : Baudouin d'Aumeries
Co-Programmation & Développement : Marc-Olivier Méhu
Soutien technique & logistique : Manuel Goepfert

Contact : metmap@orbifly.com




SOURCES & CREDITS :

   NOAA